sensor_id;sensor_type;location;lat;lon;timestamp;temperature;humidity
3790;DHT22;1910;49.042;9.028;2022-08-16T00:00:59;18.10;99.90
3790;DHT22;1910;49.042;9.028;2022-08-16T00:03:25;18.10;99.90
3790;DHT22;1910;49.042;9.028;2022-08-16T00:05:51;18.20;99.90
3790;DHT22;1910;49.042;9.028;2022-08-16T00:08:17;18.20;99.90
3790;DHT22;1910;49.042;9.028;2022-08-16T00:10:43;18.10;99.90
3790;DHT22;1910;49.042;9.028;2022-08-16T00:13:09;18.10;99.90
3790;DHT22;1910;49.042;9.028;2022-08-16T00:15:41;18.10;99.90
3790;DHT22;1910;49.042;9.028;2022-08-16T00:18:08;18.10;99.90
3790;DHT22;1910;49.042;9.028;2022-08-16T00:20:38;18.00;99.90
3790;DHT22;1910;49.042;9.028;2022-08-16T00:23:05;18.00;99.90
3790;DHT22;1910;49.042;9.028;2022-08-16T00:25:31;17.90;99.90
3790;DHT22;1910;49.042;9.028;2022-08-16T00:27:57;17.90;99.90
3790;DHT22;1910;49.042;9.028;2022-08-16T00:30:23;17.90;99.90
3790;DHT22;1910;49.042;9.028;2022-08-16T00:32:52;17.80;99.90
3790;DHT22;1910;49.042;9.028;2022-08-16T00:35:22;17.70;99.90
3790;DHT22;1910;49.042;9.028;2022-08-16T00:37:48;17.60;99.90
3790;DHT22;1910;49.042;9.028;2022-08-16T00:40:19;17.60;99.90
3790;DHT22;1910;49.042;9.028;2022-08-16T00:42:45;17.60;99.90
3790;DHT22;1910;49.042;9.028;2022-08-16T00:45:33;17.70;99.90
3790;DHT22;1910;49.042;9.028;2022-08-16T00:48:10;17.60;99.90
3790;DHT22;1910;49.042;9.028;2022-08-16T00:50:39;17.70;99.90
3790;DHT22;1910;49.042;9.028;2022-08-16T00:53:07;17.60;99.90
3790;DHT22;1910;49.042;9.028;2022-08-16T00:55:34;17.50;99.90
3790;DHT22;1910;49.042;9.028;2022-08-16T00:58:01;17.50;99.90
3790;DHT22;1910;49.042;9.028;2022-08-16T01:00:30;17.50;99.90
3790;DHT22;1910;49.042;9.028;2022-08-16T01:02:58;17.40;99.90
3790;DHT22;1910;49.042;9.028;2022-08-16T01:05:25;17.50;99.90
3790;DHT22;1910;49.042;9.028;2022-08-16T01:07:52;17.50;99.90
3790;DHT22;1910;49.042;9.028;2022-08-16T01:10:23;17.40;99.90
3790;DHT22;1910;49.042;9.028;2022-08-16T01:12:49;17.50;99.90
3790;DHT22;1910;49.042;9.028;2022-08-16T01:15:15;17.50;99.90
3790;DHT22;1910;49.042;9.028;2022-08-16T01:17:42;17.40;99.90
3790;DHT22;1910;49.042;9.028;2022-08-16T01:20:12;17.30;99.90
3790;DHT22;1910;49.042;9.028;2022-08-16T01:23:04;17.20;99.90
3790;DHT22;1910;49.042;9.028;2022-08-16T01:25:37;17.10;99.90
3790;DHT22;1910;49.042;9.028;2022-08-16T01:28:07;17.00;99.90
3790;DHT22;1910;49.042;9.028;2022-08-16T01:30:40;17.00;99.90
3790;DHT22;1910;49.042;9.028;2022-08-16T01:33:08;16.90;99.90
3790;DHT22;1910;49.042;9.028;2022-08-16T01:35:54;16.90;99.90
3790;DHT22;1910;49.042;9.028;2022-08-16T01:38:35;16.90;99.90
3790;DHT22;1910;49.042;9.028;2022-08-16T01:41:08;16.80;99.90
3790;DHT22;1910;49.042;9.028;2022-08-16T01:43:36;16.70;99.90
3790;DHT22;1910;49.042;9.028;2022-08-16T01:46:05;16.60;99.90
3790;DHT22;1910;49.042;9.028;2022-08-16T01:48:31;16.50;99.90
3790;DHT22;1910;49.042;9.028;2022-08-16T01:50:58;16.40;99.90
3790;DHT22;1910;49.042;9.028;2022-08-16T01:53:25;16.40;99.90
3790;DHT22;1910;49.042;9.028;2022-08-16T01:55:51;16.30;99.90
3790;DHT22;1910;49.042;9.028;2022-08-16T01:58:17;16.20;99.90
3790;DHT22;1910;49.042;9.028;2022-08-16T02:00:44;16.10;99.90
3790;DHT22;1910;49.042;9.028;2022-08-16T02:03:09;16.10;99.90
3790;DHT22;1910;49.042;9.028;2022-08-16T02:05:35;16.00;99.90
3790;DHT22;1910;49.042;9.028;2022-08-16T02:08:02;16.00;99.90
3790;DHT22;1910;49.042;9.028;2022-08-16T02:10:27;15.90;99.90
3790;DHT22;1910;49.042;9.028;2022-08-16T02:12:53;15.90;99.90
3790;DHT22;1910;49.042;9.028;2022-08-16T02:15:22;15.90;99.90
3790;DHT22;1910;49.042;9.028;2022-08-16T02:17:48;15.90;99.90
3790;DHT22;1910;49.042;9.028;2022-08-16T02:20:14;15.90;99.90
3790;DHT22;1910;49.042;9.028;2022-08-16T02:22:40;15.80;99.90
3790;DHT22;1910;49.042;9.028;2022-08-16T02:25:11;15.80;99.90
3790;DHT22;1910;49.042;9.028;2022-08-16T02:27:38;15.90;99.90
3790;DHT22;1910;49.042;9.028;2022-08-16T02:30:06;15.80;99.90
3790;DHT22;1910;49.042;9.028;2022-08-16T02:32:34;15.80;99.90
3790;DHT22;1910;49.042;9.028;2022-08-16T02:34:59;15.80;99.90
3790;DHT22;1910;49.042;9.028;2022-08-16T02:37:25;15.80;99.90
3790;DHT22;1910;49.042;9.028;2022-08-16T02:39:50;15.80;99.90
3790;DHT22;1910;49.042;9.028;2022-08-16T02:42:16;15.80;99.90
3790;DHT22;1910;49.042;9.028;2022-08-16T02:44:43;15.80;99.90
3790;DHT22;1910;49.042;9.028;2022-08-16T02:47:09;15.80;99.90
3790;DHT22;1910;49.042;9.028;2022-08-16T02:49:34;15.90;99.90
3790;DHT22;1910;49.042;9.028;2022-08-16T02:52:00;15.80;99.90
3790;DHT22;1910;49.042;9.028;2022-08-16T02:54:25;15.90;99.90
3790;DHT22;1910;49.042;9.028;2022-08-16T02:56:51;15.90;99.90
3790;DHT22;1910;49.042;9.028;2022-08-16T02:59:16;15.90;99.90
3790;DHT22;1910;49.042;9.028;2022-08-16T03:01:42;15.90;99.90
3790;DHT22;1910;49.042;9.028;2022-08-16T03:04:08;15.90;99.90
3790;DHT22;1910;49.042;9.028;2022-08-16T03:06:34;16.00;99.90
3790;DHT22;1910;49.042;9.028;2022-08-16T03:09:00;15.90;99.90
3790;DHT22;1910;49.042;9.028;2022-08-16T03:11:25;15.80;99.90
3790;DHT22;1910;49.042;9.028;2022-08-16T03:13:53;15.70;99.90
3790;DHT22;1910;49.042;9.028;2022-08-16T03:16:20;15.60;99.90
3790;DHT22;1910;49.042;9.028;2022-08-16T03:18:46;15.60;99.90
3790;DHT22;1910;49.042;9.028;2022-08-16T03:21:12;15.60;99.90
3790;DHT22;1910;49.042;9.028;2022-08-16T03:23:38;15.60;99.90
3790;DHT22;1910;49.042;9.028;2022-08-16T03:26:03;15.70;99.90
3790;DHT22;1910;49.042;9.028;2022-08-16T03:28:29;15.70;99.90
3790;DHT22;1910;49.042;9.028;2022-08-16T03:30:55;15.70;99.90
3790;DHT22;1910;49.042;9.028;2022-08-16T03:33:20;15.70;99.90
3790;DHT22;1910;49.042;9.028;2022-08-16T03:35:46;15.70;99.90
3790;DHT22;1910;49.042;9.028;2022-08-16T03:38:14;15.60;99.90
3790;DHT22;1910;49.042;9.028;2022-08-16T03:40:40;15.70;99.90
3790;DHT22;1910;49.042;9.028;2022-08-16T03:43:08;15.70;99.90
3790;DHT22;1910;49.042;9.028;2022-08-16T03:45:36;15.80;99.90
3790;DHT22;1910;49.042;9.028;2022-08-16T03:48:02;15.80;99.90
3790;DHT22;1910;49.042;9.028;2022-08-16T03:50:29;15.70;99.90
3790;DHT22;1910;49.042;9.028;2022-08-16T03:52:55;15.60;99.90
3790;DHT22;1910;49.042;9.028;2022-08-16T03:55:21;15.60;99.90
3790;DHT22;1910;49.042;9.028;2022-08-16T03:57:47;15.60;99.90
3790;DHT22;1910;49.042;9.028;2022-08-16T04:00:16;15.50;99.90
3790;DHT22;1910;49.042;9.028;2022-08-16T04:02:42;15.50;99.90
3790;DHT22;1910;49.042;9.028;2022-08-16T04:05:10;15.50;99.90
3790;DHT22;1910;49.042;9.028;2022-08-16T04:07:36;15.50;99.90
3790;DHT22;1910;49.042;9.028;2022-08-16T04:10:04;15.50;99.90
3790;DHT22;1910;49.042;9.028;2022-08-16T04:12:30;15.50;99.90
3790;DHT22;1910;49.042;9.028;2022-08-16T04:14:55;15.50;99.90
3790;DHT22;1910;49.042;9.028;2022-08-16T04:17:21;15.40;99.90
3790;DHT22;1910;49.042;9.028;2022-08-16T04:19:47;15.40;99.90
3790;DHT22;1910;49.042;9.028;2022-08-16T04:22:13;15.40;99.90
3790;DHT22;1910;49.042;9.028;2022-08-16T04:24:38;15.40;99.90
3790;DHT22;1910;49.042;9.028;2022-08-16T04:27:04;15.40;99.90
3790;DHT22;1910;49.042;9.028;2022-08-16T04:29:30;15.50;99.90
3790;DHT22;1910;49.042;9.028;2022-08-16T04:31:56;15.60;99.90
3790;DHT22;1910;49.042;9.028;2022-08-16T04:34:22;15.80;99.90
3790;DHT22;1910;49.042;9.028;2022-08-16T04:36:48;15.80;99.90
3790;DHT22;1910;49.042;9.028;2022-08-16T04:39:14;15.90;99.90
3790;DHT22;1910;49.042;9.028;2022-08-16T04:41:40;16.10;99.90
3790;DHT22;1910;49.042;9.028;2022-08-16T04:44:07;16.50;99.90
3790;DHT22;1910;49.042;9.028;2022-08-16T04:46:33;17.00;99.90
3790;DHT22;1910;49.042;9.028;2022-08-16T04:48:58;18.00;99.90
3790;DHT22;1910;49.042;9.028;2022-08-16T04:51:24;18.00;99.90
3790;DHT22;1910;49.042;9.028;2022-08-16T04:53:50;18.60;99.90
3790;DHT22;1910;49.042;9.028;2022-08-16T04:56:17;19.30;99.90
3790;DHT22;1910;49.042;9.028;2022-08-16T04:58:44;19.90;99.90
3790;DHT22;1910;49.042;9.028;2022-08-16T05:01:10;20.60;99.90
3790;DHT22;1910;49.042;9.028;2022-08-16T05:03:35;21.20;99.90
3790;DHT22;1910;49.042;9.028;2022-08-16T05:06:01;21.70;99.90
3790;DHT22;1910;49.042;9.028;2022-08-16T05:08:27;22.00;99.90
3790;DHT22;1910;49.042;9.028;2022-08-16T05:10:54;22.50;99.90
3790;DHT22;1910;49.042;9.028;2022-08-16T05:13:20;22.70;99.90
3790;DHT22;1910;49.042;9.028;2022-08-16T05:15:46;22.70;99.90
3790;DHT22;1910;49.042;9.028;2022-08-16T05:18:13;22.60;99.90
3790;DHT22;1910;49.042;9.028;2022-08-16T05:20:39;22.90;99.90
3790;DHT22;1910;49.042;9.028;2022-08-16T05:23:05;23.80;99.90
3790;DHT22;1910;49.042;9.028;2022-08-16T05:25:30;24.40;99.90
3790;DHT22;1910;49.042;9.028;2022-08-16T05:27:56;24.20;99.90
3790;DHT22;1910;49.042;9.028;2022-08-16T05:30:24;24.40;99.90
3790;DHT22;1910;49.042;9.028;2022-08-16T05:32:49;25.20;99.90
3790;DHT22;1910;49.042;9.028;2022-08-16T05:35:15;26.00;99.90
3790;DHT22;1910;49.042;9.028;2022-08-16T05:37:41;25.80;99.90
3790;DHT22;1910;49.042;9.028;2022-08-16T05:40:09;25.60;99.90
3790;DHT22;1910;49.042;9.028;2022-08-16T05:42:34;25.20;99.90
3790;DHT22;1910;49.042;9.028;2022-08-16T05:45:00;24.00;99.90
3790;DHT22;1910;49.042;9.028;2022-08-16T05:47:26;22.00;99.90
3790;DHT22;1910;49.042;9.028;2022-08-16T05:49:51;20.80;99.90
3790;DHT22;1910;49.042;9.028;2022-08-16T05:52:17;20.20;99.90
3790;DHT22;1910;49.042;9.028;2022-08-16T05:54:43;20.00;99.90
3790;DHT22;1910;49.042;9.028;2022-08-16T05:57:09;19.70;99.90
3790;DHT22;1910;49.042;9.028;2022-08-16T05:59:35;19.40;99.90
3790;DHT22;1910;49.042;9.028;2022-08-16T06:02:02;19.20;99.90
3790;DHT22;1910;49.042;9.028;2022-08-16T06:04:28;19.20;99.90
3790;DHT22;1910;49.042;9.028;2022-08-16T06:06:54;19.50;99.90
3790;DHT22;1910;49.042;9.028;2022-08-16T06:09:19;21.10;99.90
3790;DHT22;1910;49.042;9.028;2022-08-16T06:11:45;23.40;99.90
3790;DHT22;1910;49.042;9.028;2022-08-16T06:14:10;25.70;99.90
3790;DHT22;1910;49.042;9.028;2022-08-16T06:16:36;27.80;99.90
3790;DHT22;1910;49.042;9.028;2022-08-16T06:19:02;31.00;99.90
3790;DHT22;1910;49.042;9.028;2022-08-16T06:21:28;31.00;99.90
3790;DHT22;1910;49.042;9.028;2022-08-16T06:23:54;32.80;99.90
3790;DHT22;1910;49.042;9.028;2022-08-16T06:26:20;34.70;93.30
3790;DHT22;1910;49.042;9.028;2022-08-16T06:28:46;35.30;88.20
3790;DHT22;1910;49.042;9.028;2022-08-16T06:31:13;36.40;83.00
3790;DHT22;1910;49.042;9.028;2022-08-16T06:33:40;37.90;73.30
3790;DHT22;1910;49.042;9.028;2022-08-16T06:36:05;38.80;68.00
3790;DHT22;1910;49.042;9.028;2022-08-16T06:38:34;40.20;60.60
3790;DHT22;1910;49.042;9.028;2022-08-16T06:41:05;40.10;56.80
3790;DHT22;1910;49.042;9.028;2022-08-16T06:43:32;39.80;54.90
3790;DHT22;1910;49.042;9.028;2022-08-16T06:45:59;38.60;53.90
3790;DHT22;1910;49.042;9.028;2022-08-16T06:48:24;37.10;56.60
3790;DHT22;1910;49.042;9.028;2022-08-16T06:50:50;35.80;57.20
3790;DHT22;1910;49.042;9.028;2022-08-16T06:53:17;34.30;59.90
3790;DHT22;1910;49.042;9.028;2022-08-16T06:55:42;33.30;64.40
3790;DHT22;1910;49.042;9.028;2022-08-16T06:58:09;32.60;68.00
3790;DHT22;1910;49.042;9.028;2022-08-16T07:00:35;32.30;70.30
3790;DHT22;1910;49.042;9.028;2022-08-16T07:03:00;31.30;74.20
3790;DHT22;1910;49.042;9.028;2022-08-16T07:05:26;30.90;78.00
3790;DHT22;1910;49.042;9.028;2022-08-16T07:07:51;30.50;81.20
3790;DHT22;1910;49.042;9.028;2022-08-16T07:10:18;29.80;83.30
3790;DHT22;1910;49.042;9.028;2022-08-16T07:12:43;29.20;87.50
3790;DHT22;1910;49.042;9.028;2022-08-16T07:15:09;29.90;90.50
3790;DHT22;1910;49.042;9.028;2022-08-16T07:17:35;31.20;88.20
3790;DHT22;1910;49.042;9.028;2022-08-16T07:20:04;33.20;80.80
3790;DHT22;1910;49.042;9.028;2022-08-16T07:22:30;35.30;74.30
3790;DHT22;1910;49.042;9.028;2022-08-16T07:24:55;37.20;69.00
3790;DHT22;1910;49.042;9.028;2022-08-16T07:27:21;38.80;64.00
3790;DHT22;1910;49.042;9.028;2022-08-16T07:29:46;38.40;58.50
3790;DHT22;1910;49.042;9.028;2022-08-16T07:32:12;36.50;61.10
3790;DHT22;1910;49.042;9.028;2022-08-16T07:34:38;35.60;63.70
3790;DHT22;1910;49.042;9.028;2022-08-16T07:37:07;34.70;66.00
3790;DHT22;1910;49.042;9.028;2022-08-16T07:39:33;34.20;68.30
3790;DHT22;1910;49.042;9.028;2022-08-16T07:41:58;33.90;68.60
3790;DHT22;1910;49.042;9.028;2022-08-16T07:44:24;33.70;70.00
3790;DHT22;1910;49.042;9.028;2022-08-16T07:46:49;34.40;71.00
3790;DHT22;1910;49.042;9.028;2022-08-16T07:49:15;35.90;67.60
3790;DHT22;1910;49.042;9.028;2022-08-16T07:51:41;37.30;62.30
3790;DHT22;1910;49.042;9.028;2022-08-16T07:54:08;37.30;61.00
3790;DHT22;1910;49.042;9.028;2022-08-16T07:56:34;37.90;58.30
3790;DHT22;1910;49.042;9.028;2022-08-16T07:58:59;38.20;56.90
3790;DHT22;1910;49.042;9.028;2022-08-16T08:01:26;38.20;57.10
3790;DHT22;1910;49.042;9.028;2022-08-16T08:03:52;39.30;56.20
3790;DHT22;1910;49.042;9.028;2022-08-16T08:06:20;41.10;51.20
3790;DHT22;1910;49.042;9.028;2022-08-16T08:08:47;41.90;50.40
3790;DHT22;1910;49.042;9.028;2022-08-16T08:13:39;41.10;49.10
3790;DHT22;1910;49.042;9.028;2022-08-16T08:16:05;40.70;49.50
3790;DHT22;1910;49.042;9.028;2022-08-16T08:18:30;39.80;50.00
3790;DHT22;1910;49.042;9.028;2022-08-16T08:23:22;36.10;53.30
3790;DHT22;1910;49.042;9.028;2022-08-16T08:25:49;35.40;56.40
3790;DHT22;1910;49.042;9.028;2022-08-16T08:28:16;35.40;57.40
3790;DHT22;1910;49.042;9.028;2022-08-16T08:30:41;36.20;57.00
3790;DHT22;1910;49.042;9.028;2022-08-16T08:33:07;35.90;55.10
3790;DHT22;1910;49.042;9.028;2022-08-16T08:35:33;35.10;56.90
3790;DHT22;1910;49.042;9.028;2022-08-16T08:37:59;35.00;56.40
3790;DHT22;1910;49.042;9.028;2022-08-16T08:40:27;34.50;57.00
3790;DHT22;1910;49.042;9.028;2022-08-16T08:42:57;33.40;57.30
3790;DHT22;1910;49.042;9.028;2022-08-16T08:45:23;33.90;58.60
3790;DHT22;1910;49.042;9.028;2022-08-16T08:47:49;33.90;59.50
3790;DHT22;1910;49.042;9.028;2022-08-16T08:50:15;35.10;57.50
3790;DHT22;1910;49.042;9.028;2022-08-16T08:52:42;34.60;56.40
3790;DHT22;1910;49.042;9.028;2022-08-16T08:55:10;35.70;58.70
3790;DHT22;1910;49.042;9.028;2022-08-16T08:57:37;35.80;56.60
3790;DHT22;1910;49.042;9.028;2022-08-16T09:00:04;32.60;59.40
3790;DHT22;1910;49.042;9.028;2022-08-16T09:02:30;31.20;63.90
3790;DHT22;1910;49.042;9.028;2022-08-16T09:04:55;30.20;71.00
3790;DHT22;1910;49.042;9.028;2022-08-16T09:07:21;30.00;68.90
3790;DHT22;1910;49.042;9.028;2022-08-16T09:09:47;30.20;67.40
3790;DHT22;1910;49.042;9.028;2022-08-16T09:12:13;29.90;71.00
3790;DHT22;1910;49.042;9.028;2022-08-16T09:14:39;29.10;74.30
3790;DHT22;1910;49.042;9.028;2022-08-16T09:17:05;28.70;76.30
3790;DHT22;1910;49.042;9.028;2022-08-16T09:19:32;28.10;77.70
3790;DHT22;1910;49.042;9.028;2022-08-16T09:21:58;27.80;81.90
3790;DHT22;1910;49.042;9.028;2022-08-16T09:24:23;27.80;83.40
3790;DHT22;1910;49.042;9.028;2022-08-16T09:26:49;27.70;86.00
3790;DHT22;1910;49.042;9.028;2022-08-16T09:29:14;27.60;85.50
3790;DHT22;1910;49.042;9.028;2022-08-16T09:31:40;27.40;86.30
3790;DHT22;1910;49.042;9.028;2022-08-16T09:34:07;27.20;86.30
3790;DHT22;1910;49.042;9.028;2022-08-16T09:36:33;27.30;88.70
3790;DHT22;1910;49.042;9.028;2022-08-16T09:38:59;28.70;85.80
3790;DHT22;1910;49.042;9.028;2022-08-16T09:41:27;28.90;86.70
3790;DHT22;1910;49.042;9.028;2022-08-16T09:43:53;30.80;79.10
3790;DHT22;1910;49.042;9.028;2022-08-16T09:46:18;31.10;73.00
3790;DHT22;1910;49.042;9.028;2022-08-16T09:48:45;30.60;73.40
3790;DHT22;1910;49.042;9.028;2022-08-16T09:51:12;29.60;74.80
3790;DHT22;1910;49.042;9.028;2022-08-16T09:53:38;30.60;74.40
3790;DHT22;1910;49.042;9.028;2022-08-16T09:56:12;31.90;70.60
3790;DHT22;1910;49.042;9.028;2022-08-16T09:58:40;32.60;68.60
3790;DHT22;1910;49.042;9.028;2022-08-16T10:01:06;33.80;63.50
3790;DHT22;1910;49.042;9.028;2022-08-16T10:03:31;33.50;62.00
3790;DHT22;1910;49.042;9.028;2022-08-16T10:05:57;33.00;65.70
3790;DHT22;1910;49.042;9.028;2022-08-16T10:08:23;33.80;62.60
3790;DHT22;1910;49.042;9.028;2022-08-16T10:10:48;34.80;60.70
3790;DHT22;1910;49.042;9.028;2022-08-16T10:13:33;35.00;57.90
3790;DHT22;1910;49.042;9.028;2022-08-16T10:15:59;34.60;58.70
3790;DHT22;1910;49.042;9.028;2022-08-16T10:18:26;35.20;55.50
3790;DHT22;1910;49.042;9.028;2022-08-16T10:20:52;35.20;55.30
3790;DHT22;1910;49.042;9.028;2022-08-16T10:23:20;34.30;56.90
3790;DHT22;1910;49.042;9.028;2022-08-16T10:25:46;32.90;58.30
3790;DHT22;1910;49.042;9.028;2022-08-16T10:28:12;32.10;59.70
3790;DHT22;1910;49.042;9.028;2022-08-16T10:30:39;31.50;59.70
3790;DHT22;1910;49.042;9.028;2022-08-16T10:33:09;31.00;62.40
3790;DHT22;1910;49.042;9.028;2022-08-16T10:35:35;30.10;65.10
3790;DHT22;1910;49.042;9.028;2022-08-16T10:38:00;29.20;68.90
3790;DHT22;1910;49.042;9.028;2022-08-16T10:40:26;28.70;72.10
3790;DHT22;1910;49.042;9.028;2022-08-16T10:42:52;28.40;73.30
3790;DHT22;1910;49.042;9.028;2022-08-16T10:45:18;28.00;75.70
3790;DHT22;1910;49.042;9.028;2022-08-16T10:47:43;27.30;78.20
3790;DHT22;1910;49.042;9.028;2022-08-16T10:50:10;27.00;81.10
3790;DHT22;1910;49.042;9.028;2022-08-16T10:52:35;27.50;80.80
3790;DHT22;1910;49.042;9.028;2022-08-16T10:55:01;27.80;78.30
3790;DHT22;1910;49.042;9.028;2022-08-16T10:57:27;28.20;76.80
3790;DHT22;1910;49.042;9.028;2022-08-16T10:59:53;28.80;76.20
3790;DHT22;1910;49.042;9.028;2022-08-16T11:02:21;29.20;75.80
3790;DHT22;1910;49.042;9.028;2022-08-16T11:04:47;29.80;72.30
3790;DHT22;1910;49.042;9.028;2022-08-16T11:07:13;30.10;70.80
3790;DHT22;1910;49.042;9.028;2022-08-16T11:09:39;30.30;70.00
3790;DHT22;1910;49.042;9.028;2022-08-16T11:12:05;30.30;69.80
3790;DHT22;1910;49.042;9.028;2022-08-16T11:14:33;30.50;69.60
3790;DHT22;1910;49.042;9.028;2022-08-16T11:17:01;30.80;68.90
3790;DHT22;1910;49.042;9.028;2022-08-16T11:19:28;30.90;67.30
3790;DHT22;1910;49.042;9.028;2022-08-16T11:21:54;30.80;66.40
3790;DHT22;1910;49.042;9.028;2022-08-16T11:24:20;30.60;68.10
3790;DHT22;1910;49.042;9.028;2022-08-16T11:26:47;30.40;68.50
3790;DHT22;1910;49.042;9.028;2022-08-16T11:29:12;30.60;65.70
3790;DHT22;1910;49.042;9.028;2022-08-16T11:31:38;30.60;66.50
3790;DHT22;1910;49.042;9.028;2022-08-16T11:34:04;30.70;67.70
3790;DHT22;1910;49.042;9.028;2022-08-16T11:36:30;30.80;66.00
3790;DHT22;1910;49.042;9.028;2022-08-16T11:38:56;30.10;66.70
3790;DHT22;1910;49.042;9.028;2022-08-16T11:41:22;30.10;67.40
3790;DHT22;1910;49.042;9.028;2022-08-16T11:43:47;29.80;65.40
3790;DHT22;1910;49.042;9.028;2022-08-16T11:46:14;29.60;70.20
3790;DHT22;1910;49.042;9.028;2022-08-16T11:48:42;29.80;69.20
3790;DHT22;1910;49.042;9.028;2022-08-16T11:51:10;30.00;67.90
3790;DHT22;1910;49.042;9.028;2022-08-16T11:53:36;30.00;68.20
3790;DHT22;1910;49.042;9.028;2022-08-16T11:56:02;30.40;67.60
3790;DHT22;1910;49.042;9.028;2022-08-16T11:58:29;31.10;67.10
3790;DHT22;1910;49.042;9.028;2022-08-16T12:00:57;31.60;66.00
3790;DHT22;1910;49.042;9.028;2022-08-16T12:03:26;32.20;61.80
3790;DHT22;1910;49.042;9.028;2022-08-16T12:05:52;32.30;61.40
3790;DHT22;1910;49.042;9.028;2022-08-16T12:08:19;31.90;61.10
3790;DHT22;1910;49.042;9.028;2022-08-16T12:10:45;31.90;61.40
3790;DHT22;1910;49.042;9.028;2022-08-16T12:13:12;31.80;60.20
3790;DHT22;1910;49.042;9.028;2022-08-16T12:15:39;31.50;60.00
3790;DHT22;1910;49.042;9.028;2022-08-16T12:18:06;30.60;59.90
3790;DHT22;1910;49.042;9.028;2022-08-16T12:20:34;29.60;61.50
3790;DHT22;1910;49.042;9.028;2022-08-16T12:23:01;29.20;64.70
3790;DHT22;1910;49.042;9.028;2022-08-16T12:25:28;29.50;63.70
3790;DHT22;1910;49.042;9.028;2022-08-16T12:27:55;29.80;63.80
3790;DHT22;1910;49.042;9.028;2022-08-16T12:30:27;29.70;64.00
3790;DHT22;1910;49.042;9.028;2022-08-16T12:32:53;29.60;62.30
3790;DHT22;1910;49.042;9.028;2022-08-16T12:35:20;29.80;61.90
3790;DHT22;1910;49.042;9.028;2022-08-16T12:37:47;30.10;61.90
3790;DHT22;1910;49.042;9.028;2022-08-16T12:40:19;30.30;60.80
3790;DHT22;1910;49.042;9.028;2022-08-16T12:42:46;30.30;60.30
3790;DHT22;1910;49.042;9.028;2022-08-16T12:45:15;30.20;59.80
3790;DHT22;1910;49.042;9.028;2022-08-16T12:47:41;29.80;60.70
3790;DHT22;1910;49.042;9.028;2022-08-16T12:50:26;29.90;60.20
3790;DHT22;1910;49.042;9.028;2022-08-16T12:52:52;30.20;60.40
3790;DHT22;1910;49.042;9.028;2022-08-16T12:55:18;30.40;58.60
3790;DHT22;1910;49.042;9.028;2022-08-16T12:57:43;30.70;59.00
3790;DHT22;1910;49.042;9.028;2022-08-16T13:00:14;30.60;58.20
3790;DHT22;1910;49.042;9.028;2022-08-16T13:02:41;30.60;58.70
3790;DHT22;1910;49.042;9.028;2022-08-16T13:05:08;30.50;58.20
3790;DHT22;1910;49.042;9.028;2022-08-16T13:07:36;30.80;58.50
3790;DHT22;1910;49.042;9.028;2022-08-16T13:10:03;30.90;59.10
3790;DHT22;1910;49.042;9.028;2022-08-16T13:12:35;30.90;57.90
3790;DHT22;1910;49.042;9.028;2022-08-16T13:15:04;30.90;58.10
3790;DHT22;1910;49.042;9.028;2022-08-16T13:17:30;30.90;58.70
3790;DHT22;1910;49.042;9.028;2022-08-16T13:19:56;30.80;58.40
3790;DHT22;1910;49.042;9.028;2022-08-16T13:22:22;30.50;58.30
3790;DHT22;1910;49.042;9.028;2022-08-16T13:24:48;30.20;58.50
3790;DHT22;1910;49.042;9.028;2022-08-16T13:27:15;30.00;58.80
3790;DHT22;1910;49.042;9.028;2022-08-16T13:29:41;30.00;59.10
3790;DHT22;1910;49.042;9.028;2022-08-16T13:32:07;29.80;60.50
3790;DHT22;1910;49.042;9.028;2022-08-16T13:34:34;29.40;60.10
3790;DHT22;1910;49.042;9.028;2022-08-16T13:36:59;28.60;62.20
3790;DHT22;1910;49.042;9.028;2022-08-16T13:39:25;28.70;64.30
3790;DHT22;1910;49.042;9.028;2022-08-16T13:41:50;28.80;64.40
3790;DHT22;1910;49.042;9.028;2022-08-16T13:44:16;29.00;64.30
3790;DHT22;1910;49.042;9.028;2022-08-16T13:46:43;29.20;63.70
3790;DHT22;1910;49.042;9.028;2022-08-16T13:49:12;29.50;61.40
3790;DHT22;1910;49.042;9.028;2022-08-16T13:51:37;29.50;62.40
3790;DHT22;1910;49.042;9.028;2022-08-16T13:54:04;29.50;63.60
3790;DHT22;1910;49.042;9.028;2022-08-16T13:56:32;29.90;62.00
3790;DHT22;1910;49.042;9.028;2022-08-16T13:58:58;30.00;59.40
3790;DHT22;1910;49.042;9.028;2022-08-16T14:01:24;30.00;59.90
3790;DHT22;1910;49.042;9.028;2022-08-16T14:03:49;30.10;60.00
3790;DHT22;1910;49.042;9.028;2022-08-16T14:06:15;30.40;60.00
3790;DHT22;1910;49.042;9.028;2022-08-16T14:08:43;30.40;58.70
3790;DHT22;1910;49.042;9.028;2022-08-16T14:11:12;30.10;59.20
3790;DHT22;1910;49.042;9.028;2022-08-16T14:13:40;29.90;60.20
3790;DHT22;1910;49.042;9.028;2022-08-16T14:16:06;29.80;59.60
3790;DHT22;1910;49.042;9.028;2022-08-16T14:18:32;30.10;60.30
3790;DHT22;1910;49.042;9.028;2022-08-16T14:20:58;30.00;59.30
3790;DHT22;1910;49.042;9.028;2022-08-16T14:23:23;29.80;59.90
3790;DHT22;1910;49.042;9.028;2022-08-16T14:25:49;29.40;60.80
3790;DHT22;1910;49.042;9.028;2022-08-16T14:28:14;29.10;61.40
3790;DHT22;1910;49.042;9.028;2022-08-16T14:30:41;29.20;61.90
3790;DHT22;1910;49.042;9.028;2022-08-16T14:33:06;29.00;61.40
3790;DHT22;1910;49.042;9.028;2022-08-16T14:35:32;28.70;60.90
3790;DHT22;1910;49.042;9.028;2022-08-16T14:37:58;28.60;62.50
3790;DHT22;1910;49.042;9.028;2022-08-16T14:40:24;28.70;62.30
3790;DHT22;1910;49.042;9.028;2022-08-16T14:42:50;28.80;61.60
3790;DHT22;1910;49.042;9.028;2022-08-16T14:45:20;28.60;61.80
3790;DHT22;1910;49.042;9.028;2022-08-16T14:47:46;28.40;63.00
3790;DHT22;1910;49.042;9.028;2022-08-16T14:50:15;28.40;63.50
3790;DHT22;1910;49.042;9.028;2022-08-16T14:52:44;28.30;64.50
3790;DHT22;1910;49.042;9.028;2022-08-16T14:55:11;28.40;64.10
3790;DHT22;1910;49.042;9.028;2022-08-16T14:57:37;28.30;63.50
3790;DHT22;1910;49.042;9.028;2022-08-16T15:00:05;28.30;64.10
3790;DHT22;1910;49.042;9.028;2022-08-16T15:02:33;28.50;65.70
3790;DHT22;1910;49.042;9.028;2022-08-16T15:04:59;28.80;63.40
3790;DHT22;1910;49.042;9.028;2022-08-16T15:07:24;29.20;63.20
3790;DHT22;1910;49.042;9.028;2022-08-16T15:09:50;29.40;61.70
3790;DHT22;1910;49.042;9.028;2022-08-16T15:12:19;29.60;61.30
3790;DHT22;1910;49.042;9.028;2022-08-16T15:14:46;29.60;60.80
3790;DHT22;1910;49.042;9.028;2022-08-16T15:17:14;29.60;61.20
3790;DHT22;1910;49.042;9.028;2022-08-16T15:19:40;29.50;60.60
3790;DHT22;1910;49.042;9.028;2022-08-16T15:22:19;29.10;61.80
3790;DHT22;1910;49.042;9.028;2022-08-16T15:24:46;29.00;63.00
3790;DHT22;1910;49.042;9.028;2022-08-16T15:27:12;28.90;62.10
3790;DHT22;1910;49.042;9.028;2022-08-16T15:29:38;28.90;62.80
3790;DHT22;1910;49.042;9.028;2022-08-16T15:32:04;28.70;62.20
3790;DHT22;1910;49.042;9.028;2022-08-16T15:34:30;28.70;62.80
3790;DHT22;1910;49.042;9.028;2022-08-16T15:36:56;28.70;63.70
3790;DHT22;1910;49.042;9.028;2022-08-16T15:39:21;28.60;63.50
3790;DHT22;1910;49.042;9.028;2022-08-16T15:44:19;28.80;62.60
3790;DHT22;1910;49.042;9.028;2022-08-16T15:46:45;29.00;62.40
3790;DHT22;1910;49.042;9.028;2022-08-16T15:49:12;29.40;60.40
3790;DHT22;1910;49.042;9.028;2022-08-16T15:51:39;29.50;61.30
3790;DHT22;1910;49.042;9.028;2022-08-16T15:54:04;29.80;61.30
3790;DHT22;1910;49.042;9.028;2022-08-16T15:56:30;29.90;59.10
3790;DHT22;1910;49.042;9.028;2022-08-16T16:01:21;29.80;58.20
3790;DHT22;1910;49.042;9.028;2022-08-16T16:03:47;29.90;58.70
3790;DHT22;1910;49.042;9.028;2022-08-16T16:06:13;29.70;59.10
3790;DHT22;1910;49.042;9.028;2022-08-16T16:08:45;29.60;58.80